Time;durP1;ratioP1;P1;durP2;ratioP2;P2;SDS_P1;SDS_P2;PMS_P1;PMS_P2;Temp;Humidity;BMP_temperature;BMP_pressure;BME280_temperature;BME280_humidity;BME280_pressure;Samples;Min_cycle;Max_cycle;Signal;HPM_P1;HPM_P2
2021/06/26 00:01:06;;;;;;;35.28;16.17;;;;;;;23.65;86.49;96856.09;5023540;28;20042;-66
2021/06/26 00:03:32;;;;;;;32.53;16.33;;;;;;;23.71;85.86;96853.47;5023919;28;20405;-68
2021/06/26 00:05:58;;;;;;;24.40;14.80;;;;;;;23.58;85.44;96804.69;5023461;28;20041;-67
2021/06/26 00:08:25;;;;;;;31.35;16.00;;;;;;;23.74;85.15;96824.25;5025340;28;20025;-66
2021/06/26 00:10:51;;;;;;;26.77;14.10;;;;;;;23.93;83.68;96842.94;5033648;28;20045;-66
2021/06/26 00:13:18;;;;;;;28.50;14.85;;;;;;;23.73;83.70;96811.34;5043480;28;20056;-66
2021/06/26 00:15:45;;;;;;;30.27;14.85;;;;;;;23.89;84.34;96847.91;5045397;28;20523;-65
2021/06/26 00:18:10;;;;;;;26.52;14.90;;;;;;;23.80;84.42;96850.69;5045342;28;20470;-65
2021/06/26 00:20:36;;;;;;;31.17;15.55;;;;;;;23.80;83.87;96847.88;5042959;28;20055;-67
2021/06/26 00:23:02;;;;;;;27.30;14.80;;;;;;;23.73;84.20;96839.63;5043546;28;20079;-66
2021/06/26 00:25:28;;;;;;;26.48;14.75;;;;;;;23.54;84.90;96844.41;5043307;28;20094;-67
2021/06/26 00:27:54;;;;;;;22.70;14.93;;;;;;;22.79;85.00;96719.59;5043532;28;20032;-66
2021/06/26 00:30:20;;;;;;;31.65;16.48;;;;;;;23.48;85.13;96839.78;5044716;28;20114;-69
2021/06/26 00:32:46;;;;;;;27.80;15.57;;;;;;;23.29;85.74;96826.75;5044776;28;20496;-67
2021/06/26 00:35:13;;;;;;;30.85;14.60;;;;;;;22.87;86.06;96780.22;5043120;28;20037;-69
2021/06/26 00:37:39;;;;;;;23.85;14.60;;;;;;;22.97;88.01;96855.34;5043527;28;20082;-67
2021/06/26 00:40:06;;;;;;;25.98;14.50;;;;;;;22.77;87.65;96779.34;5043238;28;20033;-66
2021/06/26 00:42:33;;;;;;;25.02;15.75;;;;;;;22.80;87.57;96780.47;5043048;28;20036;-66
2021/06/26 00:44:59;;;;;;;33.78;14.95;;;;;;;22.21;87.23;96674.81;5043303;28;20029;-66
2021/06/26 00:47:26;;;;;;;27.20;14.63;;;;;;;23.17;86.66;96824.75;5044136;28;20032;-66
2021/06/26 00:49:52;;;;;;;24.42;14.13;;;;;;;22.89;86.98;96803.16;5043460;28;20048;-67
2021/06/26 00:52:18;;;;;;;29.60;14.70;;;;;;;23.19;86.03;96822.28;5044865;28;20041;-68
2021/06/26 00:54:43;;;;;;;31.08;14.80;;;;;;;23.10;85.69;96808.03;5043163;28;20037;-66
2021/06/26 00:57:09;;;;;;;32.28;16.05;;;;;;;22.54;86.94;96764.84;5043908;28;20031;-67
2021/06/26 00:59:35;;;;;;;25.95;16.45;;;;;;;22.96;88.64;96808.53;5042848;28;20033;-66
2021/06/26 01:02:03;;;;;;;31.55;15.77;;;;;;;22.74;89.71;96813.38;5042233;28;20123;-66
2021/06/26 01:04:28;;;;;;;28.52;15.98;;;;;;;22.15;90.60;96769.75;5043253;28;20618;-67
2021/06/26 01:06:55;;;;;;;33.03;16.80;;;;;;;22.22;90.29;96758.19;5043344;28;20037;-67
2021/06/26 01:09:20;;;;;;;37.53;16.73;;;;;;;22.06;90.04;96738.63;5042595;28;20044;-66
2021/06/26 01:11:46;;;;;;;32.78;16.50;;;;;;;21.63;89.89;96684.00;5026529;28;20503;-67
2021/06/26 01:14:11;;;;;;;37.67;15.52;;;;;;;22.23;90.43;96775.94;5024265;28;20049;-66
2021/06/26 01:16:37;;;;;;;38.25;16.88;;;;;;;22.11;91.59;96759.81;5022496;28;20484;-67
2021/06/26 01:19:02;;;;;;;37.95;16.55;;;;;;;22.11;90.61;96721.09;5022708;28;20037;-68
2021/06/26 01:21:28;;;;;;;33.88;16.30;;;;;;;22.61;89.99;96776.69;5021989;28;20043;-66
2021/06/26 01:23:55;;;;;;;39.20;17.58;;;;;;;22.37;91.12;96783.94;5022346;28;20037;-66
2021/06/26 01:26:24;;;;;;;33.90;16.75;;;;;;;22.49;91.15;96761.31;5023797;28;20476;-66
2021/06/26 01:28:50;;;;;;;34.25;15.57;;;;;;;22.49;90.57;96752.84;5022343;28;20035;-67
2021/06/26 01:31:15;;;;;;;37.05;16.45;;;;;;;22.71;89.11;96775.53;5023884;28;20411;-66
2021/06/26 01:33:41;;;;;;;37.78;16.38;;;;;;;22.63;89.82;96782.69;5022580;28;20074;-67
2021/06/26 01:36:06;;;;;;;34.20;16.40;;;;;;;22.57;89.95;96780.88;5023536;28;20468;-66
2021/06/26 01:38:32;;;;;;;30.35;16.58;;;;;;;22.46;91.18;96765.06;5024186;28;20044;-66
2021/06/26 01:40:57;;;;;;;34.50;16.92;;;;;;;22.51;90.07;96760.09;5021492;28;20792;-67
2021/06/26 01:43:23;;;;;;;32.55;16.88;;;;;;;22.45;90.53;96743.72;5022422;28;20136;-67
2021/06/26 01:45:48;;;;;;;29.75;16.92;;;;;;;22.69;89.45;96763.09;5023903;28;20029;-66
2021/06/26 01:48:14;;;;;;;27.70;15.15;;;;;;;22.81;88.83;96748.16;5022599;28;20088;-66
2021/06/26 01:50:39;;;;;;;27.90;15.90;;;;;;;22.53;88.86;96718.88;5023909;28;20041;-66
2021/06/26 01:53:05;;;;;;;26.67;15.85;;;;;;;22.21;89.01;96657.88;5022192;28;20056;-67
2021/06/26 01:55:31;;;;;;;29.40;17.00;;;;;;;22.71;88.93;96729.56;5021698;28;20068;-66
2021/06/26 01:57:57;;;;;;;31.83;15.85;;;;;;;22.80;88.86;96749.41;5021787;28;20423;-66
2021/06/26 02:00:24;;;;;;;28.30;15.95;;;;;;;22.79;88.01;96742.19;5023073;28;20030;-66
2021/06/26 02:02:51;;;;;;;27.45;16.17;;;;;;;22.71;88.41;96749.31;5023302;28;20060;-66
2021/06/26 02:05:18;;;;;;;29.27;15.55;;;;;;;22.08;88.48;96696.59;5023088;28;20296;-66
2021/06/26 02:07:47;;;;;;;30.38;15.70;;;;;;;22.78;88.52;96746.25;5022084;28;20045;-66
2021/06/26 02:10:15;;;;;;;27.90;16.15;;;;;;;22.78;88.21;96746.25;5025475;28;20099;-67
2021/06/26 02:12:41;;;;;;;25.40;15.13;;;;;;;22.74;88.66;96734.28;5043944;28;20040;-66
2021/06/26 02:15:08;;;;;;;30.30;15.63;;;;;;;22.69;89.84;96721.53;5041445;28;20111;-68
2021/06/26 02:17:34;;;;;;;25.83;15.35;;;;;;;22.18;88.81;96630.56;5041753;28;20048;-67
2021/06/26 02:19:59;;;;;;;28.48;15.00;;;;;;;22.51;88.83;96681.03;5047015;28;20396;-66
2021/06/26 02:22:25;;;;;;;31.55;15.27;;;;;;;22.28;89.02;96639.91;5045314;28;20044;-66
2021/06/26 02:24:50;;;;;;;36.85;16.50;;;;;;;22.44;88.13;96671.59;5047672;28;20032;-67
2021/06/26 02:27:16;;;;;;;33.95;15.43;;;;;;;22.28;87.36;96635.06;5046599;28;20100;-66
2021/06/26 02:29:41;;;;;;;38.10;16.98;;;;;;;22.71;87.73;96729.56;5045830;28;20494;-66
2021/06/26 02:32:07;;;;;;;33.78;17.05;;;;;;;22.67;88.08;96728.91;5045631;28;20040;-67
2021/06/26 02:34:33;;;;;;;30.35;16.85;;;;;;;22.67;87.61;96752.25;5047395;28;20539;-65
2021/06/26 02:36:58;;;;;;;37.20;16.75;;;;;;;22.52;88.44;96733.47;5046756;28;20310;-67
2021/06/26 02:39:24;;;;;;;30.98;15.23;;;;;;;21.99;87.39;96639.31;5046767;28;20029;-66
2021/06/26 02:41:49;;;;;;;42.65;18.80;;;;;;;22.65;87.51;96759.63;5046940;28;20086;-68
2021/06/26 02:44:15;;;;;;;37.90;16.42;;;;;;;22.56;87.96;96765.19;5046999;28;20029;-66
2021/06/26 02:46:40;;;;;;;40.67;15.93;;;;;;;22.07;86.88;96669.66;5046788;28;20029;-67
2021/06/26 02:49:06;;;;;;;45.75;18.75;;;;;;;22.56;88.29;96776.50;5043323;28;20077;-66
2021/06/26 02:51:31;;;;;;;42.80;17.95;;;;;;;22.39;89.39;96799.19;5046575;28;20045;-66
2021/06/26 02:53:57;;;;;;;36.45;16.98;;;;;;;22.28;90.16;96795.94;5045153;28;20029;-68
2021/06/26 02:56:22;;;;;;;36.67;17.20;;;;;;;21.75;90.20;96709.38;5046381;28;20037;-66
2021/06/26 02:58:48;;;;;;;26.70;16.98;;;;;;;22.31;90.34;96792.19;5045047;28;20115;-66
2021/06/26 03:01:14;;;;;;;29.10;16.35;;;;;;;21.83;90.66;96738.19;5046445;28;20059;-65
2021/06/26 03:03:40;;;;;;;26.45;16.20;;;;;;;22.14;91.78;96782.28;5044815;28;20049;-67
2021/06/26 03:06:06;;;;;;;29.58;16.73;;;;;;;21.94;90.47;96732.97;5046119;28;20035;-67
2021/06/26 03:08:31;;;;;;;32.17;17.45;;;;;;;21.54;90.99;96673.41;5046700;28;20040;-66
2021/06/26 03:10:57;;;;;;;34.15;16.48;;;;;;;22.26;90.51;96786.31;5036280;28;20428;-65
2021/06/26 03:13:23;;;;;;;33.35;16.90;;;;;;;21.95;90.07;96690.22;5025059;28;20835;-65
2021/06/26 03:15:48;;;;;;;36.65;15.85;;;;;;;22.40;89.67;96764.06;5025594;28;20405;-67
2021/06/26 03:18:14;;;;;;;30.67;16.27;;;;;;;22.46;88.42;96800.97;5026534;28;20033;-65
2021/06/26 03:20:40;;;;;;;36.08;16.60;;;;;;;22.43;88.50;96793.41;5024260;28;20474;-66
2021/06/26 03:23:06;;;;;;;27.85;15.80;;;;;;;22.52;88.02;96787.09;5024890;28;20168;-65
2021/06/26 03:25:31;;;;;;;28.35;16.67;;;;;;;22.27;88.23;96774.56;5024355;28;20033;-65
2021/06/26 03:27:57;;;;;;;38.85;17.08;;;;;;;22.40;89.16;96795.09;5025251;28;20041;-66
2021/06/26 03:30:22;;;;;;;34.60;17.25;;;;;;;22.16;91.58;96813.63;5023796;28;20171;-66
2021/06/26 03:32:48;;;;;;;40.38;17.98;;;;;;;22.14;91.47;96832.28;5026090;28;20113;-65
2021/06/26 03:35:14;;;;;;;33.58;16.55;;;;;;;22.09;91.89;96853.38;5025707;28;20171;-66
2021/06/26 03:37:39;;;;;;;30.63;17.48;;;;;;;21.78;91.78;96806.41;5026296;28;20154;-65
2021/06/26 03:40:06;;;;;;;26.25;16.40;;;;;;;22.24;91.60;96843.22;5025877;28;20034;-65
2021/06/26 03:42:32;;;;;;;28.30;16.35;;;;;;;22.07;90.64;96759.94;5024252;28;20088;-66
2021/06/26 03:44:57;;;;;;;26.52;16.33;;;;;;;22.71;89.71;96802.97;5024458;28;20579;-65
2021/06/26 03:47:25;;;;;;;35.47;17.02;;;;;;;22.87;88.46;96822.59;5007756;28;20116;-65
2021/06/26 03:49:50;;;;;;;27.42;17.10;;;;;;;23.06;87.20;96813.03;5024327;28;20030;-65
2021/06/26 03:52:15;;;;;;;24.50;15.35;;;;;;;23.02;86.89;96812.38;5025506;28;20052;-65
2021/06/26 03:54:41;;;;;;;37.03;16.20;;;;;;;23.12;85.98;96816.84;5025778;28;20034;-65
2021/06/26 03:57:07;;;;;;;28.15;16.55;;;;;;;23.20;85.12;96829.50;5023727;28;20038;-65
2021/06/26 03:59:32;;;;;;;29.33;14.80;;;;;;;22.72;87.82;96838.44;5024314;28;20025;-65
2021/06/26 04:01:58;;;;;;;42.40;17.10;;;;;;;22.75;88.70;96807.25;5024842;28;20048;-66
2021/06/26 04:04:23;;;;;;;28.10;16.88;;;;;;;22.80;87.81;96794.59;5025932;28;20068;-66
2021/06/26 04:06:49;;;;;;;30.88;16.60;;;;;;;22.32;87.05;96711.91;5023779;28;20041;-66
2021/06/26 04:09:14;;;;;;;33.90;14.90;;;;;;;22.84;87.25;96823.50;5023678;28;20571;-66
2021/06/26 04:11:40;;;;;;;30.80;15.48;;;;;;;22.68;88.63;96849.09;5040680;28;20033;-65
2021/06/26 04:14:05;;;;;;;33.75;17.23;;;;;;;22.11;88.02;96783.16;5043636;28;20025;-65
2021/06/26 04:16:31;;;;;;;29.73;15.32;;;;;;;22.42;88.56;96859.56;5044775;28;20100;-66
2021/06/26 04:18:57;;;;;;;31.23;15.50;;;;;;;22.27;88.76;96898.75;5043557;28;20035;-65
2021/06/26 04:21:23;;;;;;;30.10;16.00;;;;;;;22.06;89.25;96876.84;5044900;28;20037;-68
2021/06/26 04:23:48;;;;;;;29.35;15.35;;;;;;;22.22;90.11;96884.44;5043696;28;20045;-67
2021/06/26 04:26:14;;;;;;;42.10;16.95;;;;;;;21.24;94.98;96788.69;5043018;28;20024;-66
2021/06/26 04:28:39;;;;;;;71.55;26.40;;;;;;;21.67;100.00;96896.91;5044755;28;20527;-63
2021/06/26 04:31:05;;;;;;;69.80;26.27;;;;;;;21.52;100.00;96779.38;5044160;28;20025;-67
2021/06/26 04:33:30;;;;;;;36.08;13.48;;;;;;;20.44;100.00;96637.66;5043014;28;20056;-66
2021/06/26 04:35:56;;;;;;;31.35;13.30;;;;;;;20.54;100.00;96653.47;5043160;28;20068;-68
2021/06/26 04:38:22;;;;;;;31.27;11.82;;;;;;;20.79;100.00;96733.19;5044639;28;20522;-67
2021/06/26 04:40:49;;;;;;;38.58;15.65;;;;;;;20.74;100.00;96766.69;5043300;28;20025;-67
2021/06/26 04:43:15;;;;;;;34.30;12.90;;;;;;;19.98;100.00;96714.81;5042325;28;20110;-68
2021/06/26 04:45:44;;;;;;;34.33;13.18;;;;;;;20.46;100.00;96812.50;5042363;28;20033;-67
2021/06/26 04:48:11;;;;;;;32.60;13.35;;;;;;;20.03;100.00;96741.63;5044564;28;20220;-67
2021/06/26 04:50:36;;;;;;;33.33;15.00;;;;;;;20.14;100.00;96759.06;5042536;28;20060;-68
2021/06/26 04:53:02;;;;;;;28.05;15.32;;;;;;;19.72;100.00;96689.78;5042717;28;20648;-68
2021/06/26 04:55:28;;;;;;;32.80;14.25;;;;;;;20.45;100.00;96834.22;5042051;28;20115;-68
2021/06/26 04:57:53;;;;;;;35.80;15.68;;;;;;;20.01;100.00;96747.69;5043888;28;20490;-67
2021/06/26 05:00:19;;;;;;;29.85;15.20;;;;;;;20.43;100.00;96800.09;5043798;28;20032;-68
2021/06/26 05:02:45;;;;;;;36.33;15.45;;;;;;;20.26;100.00;96755.53;5043848;28;20049;-70
2021/06/26 05:05:11;;;;;;;36.17;15.63;;;;;;;21.04;100.00;96842.34;5041940;28;20380;-68
2021/06/26 05:07:36;;;;;;;40.30;16.92;;;;;;;21.25;100.00;96850.22;5044251;28;20040;-69
2021/06/26 05:10:03;;;;;;;39.40;16.48;;;;;;;21.44;100.00;96845.66;5040540;28;20066;-68
2021/06/26 05:12:28;;;;;;;32.30;17.50;;;;;;;21.36;100.00;96811.25;5021258;28;20033;-68
2021/06/26 05:14:54;;;;;;;38.53;18.80;;;;;;;21.53;100.00;96845.81;5023912;28;20504;-68
2021/06/26 05:17:19;;;;;;;36.22;18.00;;;;;;;21.70;100.00;96864.22;5023842;28;20045;-69
2021/06/26 05:19:45;;;;;;;38.75;18.95;;;;;;;21.62;100.00;96874.13;5024321;28;20065;-70
2021/06/26 05:22:10;;;;;;;40.45;20.25;;;;;;;21.82;100.00;96886.84;5021828;28;20038;-67
2021/06/26 05:24:36;;;;;;;37.30;17.67;;;;;;;21.93;100.00;96878.84;5022343;28;20128;-70
2021/06/26 05:27:01;;;;;;;33.08;17.73;;;;;;;21.48;100.00;96768.19;5023376;28;20045;-68
2021/06/26 05:29:27;;;;;;;36.55;15.68;;;;;;;22.31;100.00;96865.56;5022040;28;20172;-68
2021/06/26 05:31:52;;;;;;;33.10;15.50;;;;;;;22.50;100.00;96860.94;5023990;28;20048;-68
2021/06/26 05:34:18;;;;;;;29.23;15.85;;;;;;;22.69;100.00;96851.44;5023010;28;20041;-68
2021/06/26 05:36:43;;;;;;;50.95;33.13;;;;;;;22.92;100.00;96841.81;5023845;28;20099;-68
2021/06/26 05:39:09;;;;;;;50.80;27.65;;;;;;;23.01;100.00;96833.41;5022502;28;20051;-69
2021/06/26 05:41:34;;;;;;;33.25;17.75;;;;;;;23.15;100.00;96839.34;5021478;28;20037;-70
2021/06/26 05:44:00;;;;;;;33.00;16.05;;;;;;;23.14;100.00;96853.94;5021735;28;20099;-68
2021/06/26 05:46:25;;;;;;;29.65;14.55;;;;;;;22.89;97.84;96808.81;5023094;28;20112;-69
2021/06/26 05:48:51;;;;;;;36.83;16.63;;;;;;;23.39;99.50;96882.13;5022141;28;20071;-69
2021/06/26 05:51:18;;;;;;;31.10;16.73;;;;;;;22.94;100.00;96844.94;5023266;28;20025;-68
2021/06/26 05:53:44;;;;;;;31.70;16.08;;;;;;;23.03;100.00;96853.53;5021925;28;20033;-70
2021/06/26 05:56:10;;;;;;;31.13;15.93;;;;;;;23.17;99.71;96864.31;5021365;28;20029;-68
2021/06/26 05:58:39;;;;;;;27.13;15.38;;;;;;;23.18;100.00;96865.91;5023169;28;20499;-71
2021/06/26 06:01:06;;;;;;;26.38;16.10;;;;;;;23.27;100.00;96880.13;5021223;28;20083;-71
2021/06/26 06:03:33;;;;;;;31.70;16.15;;;;;;;23.03;98.66;96859.16;5022740;28;20065;-71
2021/06/26 06:05:59;;;;;;;37.10;16.60;;;;;;;23.18;98.36;96865.91;5022584;28;20033;-70
2021/06/26 06:08:25;;;;;;;35.35;16.10;;;;;;;23.34;99.92;96936.44;5023133;28;20405;-70
2021/06/26 06:10:50;;;;;;;36.92;15.48;;;;;;;23.39;99.76;96955.66;5030953;28;20164;-71
2021/06/26 06:13:18;;;;;;;34.60;14.95;;;;;;;23.46;99.11;96955.38;5041773;28;20024;-71
2021/06/26 06:15:45;;;;;;;33.38;15.35;;;;;;;23.12;99.84;96879.03;5040824;28;20029;-71
2021/06/26 06:18:12;;;;;;;24.38;14.75;;;;;;;23.08;97.80;96938.50;5043041;28;20945;-70
2021/06/26 06:20:37;;;;;;;36.38;15.95;;;;;;;22.88;100.00;96869.38;5040932;28;20040;-70
2021/06/26 06:23:04;;;;;;;33.47;17.75;;;;;;;23.39;100.00;96933.81;5041115;28;20025;-71
2021/06/26 06:25:30;;;;;;;27.33;16.48;;;;;;;22.04;100.00;96679.03;5040497;28;20050;-70
2021/06/26 06:27:56;;;;;;;34.50;16.27;;;;;;;23.95;100.00;96976.25;5042374;28;20029;-70
2021/06/26 06:30:22;;;;;;;28.45;16.13;;;;;;;24.21;100.00;96955.06;5042067;28;20053;-70
2021/06/26 06:32:47;;;;;;;32.53;16.42;;;;;;;23.77;98.71;96899.72;5042627;28;20116;-70
2021/06/26 06:35:14;;;;;;;32.45;17.45;;;;;;;24.33;98.06;96928.72;5041982;28;20037;-70
2021/06/26 06:37:39;;;;;;;33.67;15.90;;;;;;;23.93;97.03;96814.63;5041130;28;20049;-69
2021/06/26 06:40:07;;;;;;;34.85;18.63;;;;;;;24.69;95.10;96920.41;5042137;28;20550;-69
2021/06/26 06:42:34;;;;;;;28.35;16.67;;;;;;;24.56;92.67;96911.22;5040914;28;20044;-70
2021/06/26 06:45:00;;;;;;;43.03;17.15;;;;;;;24.77;92.13;96924.53;5041023;28;20037;-68
2021/06/26 06:47:26;;;;;;;30.52;16.10;;;;;;;24.98;90.55;96918.00;5042072;28;20031;-70
2021/06/26 06:49:51;;;;;;;31.20;15.93;;;;;;;24.78;89.99;96868.66;5030526;28;20037;-71
2021/06/26 06:52:16;;;;;;;32.20;15.68;;;;;;;23.33;88.33;96629.53;5005433;28;20125;-75
2021/06/26 06:54:42;;;;;;;29.90;17.42;;;;;;;25.27;88.05;96878.69;5003380;28;20042;-71
2021/06/26 06:57:08;;;;;;;30.00;15.65;;;;;;;25.64;85.89;96924.13;5018377;28;20038;-65
2021/06/26 06:59:33;;;;;;;29.35;15.82;;;;;;;25.59;87.13;96921.91;5023275;28;20034;-70
2021/06/26 07:02:01;;;;;;;20.10;14.48;;;;;;;24.98;85.67;96843.50;5022082;28;20583;-66
2021/06/26 07:04:26;;;;;;;24.48;15.20;;;;;;;25.05;86.62;96823.38;5021504;28;20048;-65
2021/06/26 07:06:52;;;;;;;26.65;14.63;;;;;;;25.78;85.97;96929.94;5025407;28;20037;-66
2021/06/26 07:09:18;;;;;;;33.92;15.88;;;;;;;26.01;85.63;96914.34;5010796;28;20491;-67
2021/06/26 07:11:43;;;;;;;30.27;14.98;;;;;;;25.85;86.01;96894.75;5036306;28;20036;-68
2021/06/26 07:14:09;;;;;;;29.58;15.77;;;;;;;25.91;82.38;96870.19;5035530;28;20040;-70
2021/06/26 07:16:34;;;;;;;28.05;15.65;;;;;;;26.30;79.85;96911.75;5014940;28;20029;-71
2021/06/26 07:19:00;;;;;;;21.17;12.57;;;;;;;26.08;78.13;96914.03;5006804;28;20072;-72
2021/06/26 07:21:25;;;;;;;23.08;13.15;;;;;;;25.96;83.11;96918.56;5004443;28;20028;-68
2021/06/26 07:23:51;;;;;;;29.08;13.15;;;;;;;26.08;82.94;96916.84;5006205;28;20499;-66
2021/06/26 07:26:16;;;;;;;22.27;11.60;;;;;;;25.74;81.88;96837.69;5004110;28;20030;-63
2021/06/26 07:28:42;;;;;;;19.70;11.27;;;;;;;24.23;79.08;96598.69;5005060;28;20196;-72
2021/06/26 07:31:07;;;;;;;17.73;12.05;;;;;;;26.59;77.82;96943.22;5004390;28;20053;-67
2021/06/26 07:33:32;;;;;;;23.40;11.63;;;;;;;26.54;78.36;96909.78;5010715;28;20519;-68
2021/06/26 07:35:58;;;;;;;22.60;11.55;;;;;;;25.46;76.51;96742.56;5025617;28;20116;-72
2021/06/26 07:38:23;;;;;;;20.20;10.75;;;;;;;26.85;76.37;96944.44;5024297;28;20413;-69
2021/06/26 07:40:49;;;;;;;23.85;10.73;;;;;;;26.68;75.15;96903.47;5022445;28;20087;-71
2021/06/26 07:43:15;;;;;;;19.55;11.13;;;;;;;26.06;72.98;96760.38;5026614;28;20072;-65
2021/06/26 07:45:40;;;;;;;19.63;10.95;;;;;;;26.71;71.94;96859.84;5009640;28;20060;-68
2021/06/26 07:48:06;;;;;;;19.55;11.73;;;;;;;26.90;69.83;96846.31;5004273;28;20038;-66
2021/06/26 07:50:32;;;;;;;15.10;11.27;;;;;;;26.68;66.68;96803.97;5003817;28;20033;-67
2021/06/26 07:52:57;;;;;;;24.20;11.10;;;;;;;27.82;67.50;96932.13;5004558;28;20552;-66
2021/06/26 07:55:23;;;;;;;17.40;9.95;;;;;;;28.11;67.01;96932.22;5003917;28;20141;-68
2021/06/26 07:57:48;;;;;;;21.52;10.95;;;;;;;28.06;63.25;96890.19;5004095;28;20504;-67
2021/06/26 08:00:14;;;;;;;17.13;12.05;;;;;;;28.30;62.75;96910.03;5004294;28;20034;-61
2021/06/26 08:02:40;;;;;;;21.52;10.55;;;;;;;28.44;61.46;96931.28;5004384;28;20053;-62
2021/06/26 08:05:06;;;;;;;21.20;11.25;;;;;;;28.15;61.23;96858.75;5011159;28;20034;-65
2021/06/26 08:07:31;;;;;;;17.05;10.13;;;;;;;28.35;60.98;96874.34;5008109;28;20206;-69
2021/06/26 08:09:57;;;;;;;18.02;10.52;;;;;;;28.60;58.85;96899.41;5008051;28;20030;-66
2021/06/26 08:12:22;;;;;;;18.75;9.18;;;;;;;28.94;59.48;96930.06;5024876;28;20045;-71
2021/06/26 08:14:48;;;;;;;17.30;9.88;;;;;;;29.15;58.30;96929.63;5024175;28;20124;-67
2021/06/26 08:17:14;;;;;;;13.57;9.90;;;;;;;29.27;58.66;96919.19;5011587;28;20029;-69
2021/06/26 08:19:40;;;;;;;19.70;10.35;;;;;;;28.47;57.77;96827.69;5005535;28;20516;-66
2021/06/26 08:22:06;;;;;;;22.10;10.25;;;;;;;28.28;57.98;96781.50;5005245;28;20475;-68
2021/06/26 08:24:32;;;;;;;16.95;9.98;;;;;;;28.83;56.96;96815.81;5005133;28;20038;-66
2021/06/26 08:26:59;;;;;;;20.77;10.70;;;;;;;29.51;57.73;96899.78;5005037;28;20034;-62
2021/06/26 08:29:24;;;;;;;12.73;9.77;;;;;;;28.42;60.41;96748.56;5014437;28;20382;-70
2021/06/26 08:31:49;;;;;;;18.65;9.30;;;;;;;29.42;57.68;96888.50;5009778;28;20038;-67
2021/06/26 08:34:15;;;;;;;19.35;11.52;;;;;;;29.29;55.79;96893.78;5018412;28;20037;-66
2021/06/26 08:36:40;;;;;;;16.95;9.60;;;;;;;29.55;58.12;96928.91;5012070;28;20048;-64
2021/06/26 08:39:06;;;;;;;14.70;10.05;;;;;;;29.46;57.90;96941.25;5022203;28;20044;-66
2021/06/26 08:41:40;;;;;;;14.05;10.15;;;;;;;29.21;60.41;96886.94;5010634;28;20045;-63
2021/06/26 08:44:06;;;;;;;12.98;9.45;;;;;;;27.97;60.36;96852.44;5010125;28;20207;-67
2021/06/26 08:46:32;;;;;;;25.05;13.32;;;;;;;28.77;61.24;96923.31;5013162;28;20074;-65
2021/06/26 08:48:58;;;;;;;16.95;10.93;;;;;;;28.43;60.12;96841.31;5023318;28;20052;-63
2021/06/26 08:51:23;;;;;;;14.88;8.82;;;;;;;29.11;58.38;96902.59;5016949;28;20037;-62
2021/06/26 08:53:48;;;;;;;17.13;9.43;;;;;;;29.16;58.04;96904.75;5011387;28;20107;-67
2021/06/26 08:56:14;;;;;;;8.68;7.78;;;;;;;28.70;55.33;96829.59;5021334;28;20026;-70
2021/06/26 08:58:39;;;;;;;10.43;6.18;;;;;;;29.31;54.22;96908.31;5016228;28;20033;-64
2021/06/26 09:01:05;;;;;;;8.38;7.50;;;;;;;29.30;52.65;96912.47;5002266;28;20404;-68
2021/06/26 09:03:30;;;;;;;8.95;7.00;;;;;;;28.30;54.92;96766.75;5004368;28;20060;-69
2021/06/26 09:06:03;;;;;;;7.80;6.82;;;;;;;28.99;53.16;96823.81;5003716;28;20600;-70
2021/06/26 09:08:28;;;;;;;9.07;7.30;;;;;;;29.65;52.56;96904.66;5003312;28;21233;-66
2021/06/26 09:10:54;;;;;;;9.25;6.38;;;;;;;29.53;52.54;96878.00;5012439;28;20024;-70
2021/06/26 09:13:23;;;;;;;9.27;7.63;;;;;;;29.64;53.96;96908.78;5043948;28;20056;-62
2021/06/26 09:16:02;;;;;;;11.63;7.28;;;;;;;29.68;54.38;96869.41;5027748;28;20041;-64
2021/06/26 09:18:27;;;;;;;10.32;7.47;;;;;;;29.99;53.46;96889.47;5008257;28;20034;-66
2021/06/26 09:20:55;;;;;;;10.45;7.30;;;;;;;29.83;52.48;96878.63;5003067;28;20038;-65
2021/06/26 09:23:29;;;;;;;11.45;8.15;;;;;;;30.06;54.32;96896.81;5009415;28;20088;-68
2021/06/26 09:26:07;;;;;;;10.88;7.20;;;;;;;29.97;53.79;96854.91;5009074;28;20033;-63
2021/06/26 09:28:32;;;;;;;13.38;7.55;;;;;;;29.94;53.68;96880.84;5008224;28;20038;-68
2021/06/26 09:30:58;;;;;;;10.70;7.57;;;;;;;30.30;52.26;96903.88;5003025;28;20026;-67
2021/06/26 09:33:25;;;;;;;9.13;7.63;;;;;;;30.54;52.79;96901.47;5004090;28;20034;-67
2021/06/26 09:36:01;;;;;;;11.55;7.93;;;;;;;30.39;53.17;96892.25;5003747;28;20121;-64
2021/06/26 09:38:27;;;;;;;11.50;8.05;;;;;;;30.21;52.92;96911.84;5004454;28;20509;-65
2021/06/26 09:40:52;;;;;;;8.63;7.72;;;;;;;30.35;54.02;96899.50;5003699;28;20041;-64
2021/06/26 09:43:29;;;;;;;13.98;8.40;;;;;;;30.07;53.89;96804.88;5004251;28;20034;-63
2021/06/26 09:46:21;;;;;;;13.73;9.00;;;;;;;30.54;55.04;96907.19;5003829;28;20072;-63
2021/06/26 09:48:52;;;;;;;23.25;13.60;;;;;;;30.84;55.97;96902.03;5004423;28;20077;-66
2021/06/26 09:51:20;;;;;;;11.85;8.30;;;;;;;30.98;54.46;96878.19;5002249;28;20102;-69
2021/06/26 09:53:56;;;;;;;14.65;9.35;;;;;;;30.57;55.25;96891.13;5014590;28;20140;-62
2021/06/26 09:56:23;;;;;;;12.18;8.43;;;;;;;29.25;58.74;96813.28;5013685;28;20036;-63
2021/06/26 09:58:53;;;;;;;10.45;8.10;;;;;;;30.49;57.26;96839.31;5013374;28;20499;-67
2021/06/26 10:01:22;;;;;;;10.45;8.23;;;;;;;30.84;55.35;96799.03;5003485;28;20061;-63
2021/06/26 10:03:48;;;;;;;10.82;7.63;;;;;;;31.81;52.54;96861.44;5009676;28;20440;-64
2021/06/26 10:06:16;;;;;;;19.58;8.63;;;;;;;32.03;50.14;96868.06;5021564;28;20037;-67
2021/06/26 10:08:43;;;;;;;11.10;8.57;;;;;;;32.29;49.51;96842.03;5021940;28;20045;-64
2021/06/26 10:11:08;;;;;;;12.90;9.10;;;;;;;31.66;48.17;96754.88;5025381;28;20065;-69
2021/06/26 10:13:35;;;;;;;18.23;11.60;;;;;;;32.17;49.95;96846.19;5024371;28;20057;-68
2021/06/26 10:16:02;;;;;;;13.95;8.27;;;;;;;32.48;49.70;96848.06;5014325;28;20033;-65
2021/06/26 10:18:29;;;;;;;13.10;8.57;;;;;;;32.41;49.25;96842.88;5013926;28;20841;-68
2021/06/26 10:20:55;;;;;;;11.55;8.02;;;;;;;32.64;48.25;96853.03;5011073;28;20049;-65
2021/06/26 10:23:20;;;;;;;17.92;8.43;;;;;;;31.81;47.59;96781.22;5010682;28;20546;-68
2021/06/26 10:25:46;;;;;;;12.60;7.38;;;;;;;32.59;46.88;96831.66;5011295;28;20025;-70
2021/06/26 10:28:13;;;;;;;10.00;7.97;;;;;;;32.51;46.55;96847.03;5010572;28;20444;-65
2021/06/26 10:30:40;;;;;;;13.50;9.40;;;;;;;32.38;46.95;96856.16;5011995;28;20025;-68
2021/06/26 10:33:12;;;;;;;12.60;8.45;;;;;;;32.35;47.23;96831.34;5023721;28;20121;-69
2021/06/26 10:35:51;;;;;;;9.75;8.30;;;;;;;32.15;45.67;96848.81;5022920;28;20037;-65
2021/06/26 10:38:17;;;;;;;27.25;13.82;;;;;;;31.99;46.77;96835.22;5022982;28;20037;-67
2021/06/26 10:40:51;;;;;;;16.05;9.57;;;;;;;31.23;46.66;96853.63;5022874;28;20037;-66
2021/06/26 10:43:30;;;;;;;11.70;9.40;;;;;;;30.91;46.89;96741.31;5024058;28;20049;-66
2021/06/26 10:46:05;;;;;;;10.27;7.88;;;;;;;31.55;46.02;96863.69;5024681;28;20167;-66
2021/06/26 10:48:31;;;;;;;11.63;8.07;;;;;;;30.77;46.92;96680.16;5023273;28;20399;-67
2021/06/26 10:50:56;;;;;;;10.98;7.22;;;;;;;31.69;44.95;96771.84;5024734;28;20307;-66
2021/06/26 10:53:42;;;;;;;14.30;9.02;;;;;;;32.20;44.66;96810.75;5023859;28;20182;-65
2021/06/26 10:56:13;;;;;;;11.27;8.43;;;;;;;31.82;45.92;96774.19;5024547;28;20133;-66
2021/06/26 10:58:43;;;;;;;8.40;7.50;;;;;;;32.10;43.47;96795.09;5026780;28;20500;-66
2021/06/26 11:01:13;;;;;;;12.35;7.65;;;;;;;31.86;43.74;96695.28;5024508;28;20116;-67
2021/06/26 11:03:38;;;;;;;14.23;8.18;;;;;;;32.52;41.77;96780.53;5024797;28;20057;-65
2021/06/26 11:06:18;;;;;;;11.98;6.80;;;;;;;32.67;43.24;96792.53;5026051;28;20491;-67
2021/06/26 11:08:59;;;;;;;11.52;8.55;;;;;;;32.51;42.61;96756.03;5025001;28;20034;-66
2021/06/26 11:11:33;;;;;;;11.30;7.03;;;;;;;33.08;42.26;96790.63;5025612;28;20088;-66
2021/06/26 11:14:16;;;;;;;8.65;7.50;;;;;;;33.04;41.29;96760.63;5046524;28;20037;-69
2021/06/26 11:16:50;;;;;;;13.23;8.63;;;;;;;31.90;44.28;96760.97;5046147;28;20158;-66